createdAt,value
2022-08-03T00:01:20.534Z,14.47
2022-08-03T00:02:52.853Z,14.40
2022-08-03T00:04:34.163Z,12.13
2022-08-03T00:06:07.327Z,13.60
2022-08-03T00:07:40.211Z,12.87
2022-08-03T00:09:12.751Z,12.97
2022-08-03T00:10:45.622Z,12.90
2022-08-03T00:12:18.173Z,14.70
2022-08-03T00:13:50.801Z,13.30
2022-08-03T00:15:23.029Z,14.63
2022-08-03T00:16:55.715Z,14.37
2022-08-03T00:18:27.940Z,14.27
2022-08-03T00:20:00.227Z,14.53
2022-08-03T00:21:32.569Z,14.90
2022-08-03T00:23:05.222Z,13.80
2022-08-03T00:24:37.587Z,14.37
2022-08-03T00:26:10.274Z,14.20
2022-08-03T00:27:42.606Z,13.20
2022-08-03T00:29:15.039Z,12.53
2022-08-03T00:30:47.268Z,14.40
2022-08-03T00:32:19.461Z,13.60
2022-08-03T00:33:58.251Z,14.27
2022-08-03T00:35:36.796Z,13.70
2022-08-03T00:37:22.694Z,11.47
2022-08-03T00:39:12.725Z,11.73
2022-08-03T00:40:45.344Z,10.30
2022-08-03T00:42:17.768Z,10.33
2022-08-03T00:43:50.370Z,9.03
2022-08-03T00:45:26.958Z,9.43
2022-08-03T00:46:59.299Z,8.90
2022-08-03T00:48:33.802Z,9.00
2022-08-03T00:50:07.219Z,8.20
2022-08-03T00:51:39.825Z,9.43
2022-08-03T00:53:13.484Z,8.30
2022-08-03T00:54:45.808Z,8.13
2022-08-03T00:56:18.736Z,9.17
2022-08-03T00:57:51.763Z,11.10
2022-08-03T00:59:24.136Z,14.70
2022-08-03T01:00:56.458Z,17.97
2022-08-03T01:02:32.152Z,21.57
2022-08-03T01:04:04.925Z,21.70
2022-08-03T01:05:52.269Z,21.83
2022-08-03T01:07:58.005Z,18.97
2022-08-03T01:10:03.010Z,18.17
2022-08-03T01:12:00.211Z,15.10
2022-08-03T01:14:19.036Z,11.17
2022-08-03T01:16:36.698Z,12.13
2022-08-03T01:18:26.121Z,11.17
2022-08-03T01:20:05.820Z,10.10
2022-08-03T01:22:09.826Z,10.23
2022-08-03T01:24:17.484Z,10.50
2022-08-03T01:26:04.402Z,10.07
2022-08-03T01:27:57.262Z,10.10
2022-08-03T01:30:00.493Z,9.90
2022-08-03T01:32:53.305Z,10.57
2022-08-03T01:34:08.394Z,10.10
2022-08-03T01:36:02.471Z,9.87
2022-08-03T01:37:52.379Z,10.13
2022-08-03T01:39:26.454Z,10.07
2022-08-03T01:41:07.879Z,10.10
2022-08-03T01:42:43.387Z,9.97
2022-08-03T01:44:29.870Z,10.47
2022-08-03T01:46:04.732Z,10.40
2022-08-03T01:47:39.488Z,10.43
2022-08-03T01:49:13.838Z,10.90
2022-08-03T01:50:47.687Z,14.30
2022-08-03T01:52:21.637Z,14.27
2022-08-03T01:53:55.127Z,13.93
2022-08-03T01:55:30.004Z,16.00
2022-08-03T01:57:04.767Z,14.30
2022-08-03T01:58:40.658Z,12.20
2022-08-03T02:00:14.724Z,12.43
2022-08-03T02:02:31.814Z,12.10
2022-08-03T02:04:00.809Z,12.10
2022-08-03T02:05:35.347Z,11.43
2022-08-03T02:07:10.452Z,11.73
2022-08-03T02:08:47.668Z,11.00
2022-08-03T02:10:23.575Z,10.70
2022-08-03T02:12:11.237Z,11.50
2022-08-03T02:13:48.036Z,11.57
2022-08-03T02:15:23.089Z,11.80
2022-08-03T02:16:57.338Z,11.30
2022-08-03T02:18:32.620Z,12.23
2022-08-03T02:20:07.352Z,11.43
2022-08-03T02:21:57.408Z,11.80
2022-08-03T02:23:33.416Z,10.23
2022-08-03T02:25:13.749Z,11.03
2022-08-03T02:26:47.100Z,10.40
2022-08-03T02:28:22.282Z,11.07
2022-08-03T02:30:05.337Z,11.07
2022-08-03T02:31:39.867Z,10.13
2022-08-03T02:33:24.973Z,9.53
2022-08-03T02:35:00.769Z,9.23
2022-08-03T02:36:39.561Z,10.50
2022-08-03T02:38:16.525Z,10.43
2022-08-03T02:39:53.326Z,10.70
2022-08-03T02:41:37.263Z,10.53
2022-08-03T02:43:17.928Z,11.67
2022-08-03T02:44:55.317Z,11.73
2022-08-03T02:46:34.080Z,12.20
2022-08-03T02:48:08.424Z,11.87
2022-08-03T02:49:51.427Z,12.93
2022-08-03T02:51:26.763Z,11.93
2022-08-03T02:53:01.749Z,12.43
2022-08-03T02:54:38.201Z,12.43
2022-08-03T02:56:11.810Z,12.37
2022-08-03T02:57:47.370Z,11.90
2022-08-03T02:59:21.274Z,12.30
2022-08-03T03:00:55.596Z,11.97
2022-08-03T03:02:29.692Z,12.27
2022-08-03T03:04:03.243Z,12.60
2022-08-03T03:05:56.194Z,12.60
2022-08-03T03:07:34.652Z,11.63
2022-08-03T03:09:25.432Z,11.67
2022-08-03T03:11:15.274Z,12.17
2022-08-03T03:12:50.602Z,12.67
2022-08-03T03:14:33.189Z,12.57
2022-08-03T03:16:07.989Z,14.17
2022-08-03T03:17:43.187Z,13.20
2022-08-03T03:19:17.173Z,13.03
2022-08-03T03:20:53.074Z,12.90
2022-08-03T03:22:27.299Z,12.83
2022-08-03T03:24:00.206Z,13.03
2022-08-03T03:25:34.409Z,12.50
2022-08-03T03:27:07.804Z,13.53
2022-08-03T03:28:40.927Z,11.90
2022-08-03T03:30:13.787Z,12.40
2022-08-03T03:31:46.400Z,11.33
2022-08-03T03:33:18.806Z,12.13
2022-08-03T03:34:51.495Z,12.40
2022-08-03T03:36:23.947Z,11.80
2022-08-03T03:37:57.158Z,12.00
2022-08-03T03:39:29.651Z,12.60
2022-08-03T03:41:02.767Z,12.93
2022-08-03T03:42:35.180Z,12.83
2022-08-03T03:44:07.557Z,13.13
2022-08-03T03:45:43.242Z,13.10
2022-08-03T03:47:15.747Z,13.00
2022-08-03T03:48:49.118Z,12.60
2022-08-03T03:50:24.027Z,12.30
2022-08-03T03:51:57.487Z,12.20
2022-08-03T03:53:30.029Z,13.97
2022-08-03T03:55:02.374Z,13.00
2022-08-03T03:56:34.605Z,13.30
2022-08-03T03:58:07.863Z,12.03
2022-08-03T03:59:42.272Z,12.07
2022-08-03T04:01:15.168Z,12.43
2022-08-03T04:02:47.733Z,11.93
2022-08-03T04:04:38.191Z,12.13
2022-08-03T04:06:29.710Z,12.27
2022-08-03T04:08:37.692Z,12.90
2022-08-03T04:10:52.788Z,13.33
2022-08-03T04:12:30.244Z,13.47
2022-08-03T04:14:19.168Z,14.17
2022-08-03T04:15:52.258Z,14.40
2022-08-03T04:17:29.440Z,14.83
2022-08-03T04:19:10.545Z,13.63
2022-08-03T04:20:48.848Z,13.50
2022-08-03T04:22:29.396Z,13.50
2022-08-03T04:24:08.543Z,15.73
2022-08-03T04:25:43.901Z,15.23
2022-08-03T04:27:34.850Z,16.60
2022-08-03T04:29:09.375Z,15.00
2022-08-03T04:30:48.291Z,16.23
2022-08-03T04:32:25.245Z,16.07
2022-08-03T04:33:57.846Z,14.40
2022-08-03T04:35:58.495Z,14.30
2022-08-03T04:37:50.708Z,12.97
2022-08-03T04:39:30.117Z,13.90
2022-08-03T04:41:03.256Z,12.40
2022-08-03T04:42:37.764Z,12.83
2022-08-03T04:44:11.116Z,13.80
2022-08-03T04:45:46.829Z,13.07
2022-08-03T04:47:20.028Z,12.03
2022-08-03T04:48:53.440Z,11.97
2022-08-03T04:50:28.071Z,11.77
2022-08-03T04:52:01.438Z,10.87
2022-08-03T04:53:33.751Z,10.25
2022-08-03T04:55:06.981Z,11.40
2022-08-03T04:56:43.351Z,10.87
2022-08-03T04:58:15.599Z,11.40
2022-08-03T04:59:49.306Z,11.03
2022-08-03T05:01:22.628Z,10.30
2022-08-03T05:02:55.580Z,9.90
2022-08-03T05:04:27.791Z,10.52
2022-08-03T05:06:01.851Z,10.45
2022-08-03T05:07:43.430Z,10.13
2022-08-03T05:09:16.207Z,9.60
2022-08-03T05:11:08.787Z,9.65
2022-08-03T05:12:41.318Z,9.68
2022-08-03T05:14:13.680Z,9.68
2022-08-03T05:15:45.883Z,9.35
2022-08-03T05:17:19.515Z,8.23
2022-08-03T05:18:51.699Z,8.55
2022-08-03T05:20:24.057Z,8.95
2022-08-03T05:21:56.248Z,8.90
2022-08-03T05:23:28.427Z,8.40
2022-08-03T05:25:02.458Z,8.40
2022-08-03T05:26:34.960Z,8.82
2022-08-03T05:28:07.204Z,8.60
2022-08-03T05:29:39.596Z,9.07
2022-08-03T05:31:13.403Z,7.90
2022-08-03T05:32:45.815Z,8.90
2022-08-03T05:34:18.038Z,8.35
2022-08-03T05:36:02.640Z,9.15
2022-08-03T05:37:36.812Z,8.00
2022-08-03T05:39:09.204Z,8.73
2022-08-03T05:40:56.964Z,8.90
2022-08-03T05:42:30.179Z,8.80
2022-08-03T05:44:02.813Z,9.48
2022-08-03T05:45:38.160Z,9.10
2022-08-03T05:47:10.422Z,8.65
2022-08-03T05:48:43.125Z,9.95
2022-08-03T05:50:15.902Z,9.63
2022-08-03T05:51:48.272Z,9.80
2022-08-03T05:53:34.762Z,9.30
2022-08-03T05:55:09.008Z,9.18
2022-08-03T05:56:41.244Z,9.30
2022-08-03T05:58:13.607Z,9.18
2022-08-03T05:59:53.945Z,9.95
2022-08-03T06:01:32.648Z,8.98
2022-08-03T06:03:05.365Z,8.80
2022-08-03T06:04:38.084Z,8.48
2022-08-03T06:06:11.558Z,9.10
2022-08-03T06:07:44.239Z,8.18
2022-08-03T06:09:17.829Z,9.05
2022-08-03T06:10:50.773Z,8.82
2022-08-03T06:12:22.948Z,8.23
2022-08-03T06:13:55.119Z,8.15
2022-08-03T06:15:27.315Z,9.35
2022-08-03T06:16:59.666Z,9.63
2022-08-03T06:18:31.924Z,8.95
2022-08-03T06:20:04.987Z,8.85
2022-08-03T06:21:37.409Z,8.50
2022-08-03T06:23:16.025Z,8.65
2022-08-03T06:24:53.671Z,8.85
2022-08-03T06:26:28.567Z,8.65
2022-08-03T06:28:00.968Z,7.95
2022-08-03T06:29:33.420Z,7.55
2022-08-03T06:31:06.416Z,8.13
2022-08-03T06:32:40.756Z,7.18
2022-08-03T06:34:34.056Z,7.82
2022-08-03T06:36:05.929Z,7.90
2022-08-03T06:37:50.260Z,8.45
2022-08-03T06:39:23.252Z,8.02
2022-08-03T06:40:56.078Z,8.55
2022-08-03T06:42:28.455Z,7.28
2022-08-03T06:44:03.031Z,8.57
2022-08-03T06:45:36.410Z,8.57
2022-08-03T06:47:08.628Z,7.93
2022-08-03T06:48:41.010Z,7.68
2022-08-03T06:50:16.640Z,7.78
2022-08-03T06:52:04.385Z,7.72
2022-08-03T06:53:39.022Z,7.70
2022-08-03T06:55:11.519Z,7.28
2022-08-03T06:56:43.879Z,7.47
2022-08-03T06:58:16.099Z,7.10
2022-08-03T07:00:09.451Z,6.75
2022-08-03T07:01:40.738Z,8.02
2022-08-03T07:03:12.919Z,7.60
2022-08-03T07:04:45.196Z,8.00
2022-08-03T07:06:17.329Z,8.18
2022-08-03T07:07:50.051Z,7.75
2022-08-03T07:09:22.613Z,7.40
2022-08-03T07:10:54.736Z,8.63
2022-08-03T07:12:28.966Z,7.97
2022-08-03T07:14:01.350Z,8.30
2022-08-03T07:15:54.837Z,7.38
2022-08-03T07:17:27.906Z,8.70
2022-08-03T07:19:00.049Z,7.30
2022-08-03T07:20:33.513Z,7.28
2022-08-03T07:22:06.411Z,7.45
2022-08-03T07:23:38.835Z,7.20
2022-08-03T07:25:11.233Z,8.80
2022-08-03T07:26:43.649Z,8.90
2022-08-03T07:28:17.358Z,8.30
2022-08-03T07:29:49.516Z,9.00
2022-08-03T07:31:21.713Z,9.65
2022-08-03T07:32:54.076Z,8.68
2022-08-03T07:34:26.252Z,8.43
2022-08-03T07:35:58.478Z,8.07
2022-08-03T07:37:31.479Z,9.77
2022-08-03T07:39:16.661Z,9.63
2022-08-03T07:40:50.350Z,8.77
2022-08-03T07:42:25.867Z,8.70
2022-08-03T07:43:58.086Z,9.07
2022-08-03T07:45:32.845Z,10.38
2022-08-03T07:47:05.502Z,10.02
2022-08-03T07:48:37.939Z,9.05
2022-08-03T07:50:10.325Z,8.52
2022-08-03T07:51:42.813Z,8.40
2022-08-03T07:53:14.987Z,10.63
2022-08-03T07:54:47.196Z,10.23
2022-08-03T07:56:19.681Z,10.07
2022-08-03T07:58:06.479Z,9.73
2022-08-03T07:59:56.469Z,10.63
2022-08-03T08:01:30.186Z,10.80
2022-08-03T08:03:04.041Z,9.60
2022-08-03T08:04:36.223Z,8.20
2022-08-03T08:06:08.573Z,9.05
2022-08-03T08:07:41.548Z,9.02
2022-08-03T08:09:14.537Z,8.07
2022-08-03T08:10:56.622Z,7.90
2022-08-03T08:12:31.020Z,9.82
2022-08-03T08:14:03.948Z,9.23
2022-08-03T08:15:36.508Z,9.95
2022-08-03T08:17:15.945Z,10.70
2022-08-03T08:18:48.064Z,9.20
2022-08-03T08:20:27.917Z,8.90
2022-08-03T08:22:02.379Z,8.82
2022-08-03T08:23:41.628Z,9.13
2022-08-03T08:25:15.704Z,8.52
2022-08-03T08:26:51.621Z,8.73
2022-08-03T08:28:32.114Z,9.50
2022-08-03T08:30:11.415Z,10.20
2022-08-03T08:31:45.347Z,9.57
2022-08-03T08:33:22.730Z,9.93
2022-08-03T08:34:57.804Z,8.50
2022-08-03T08:36:29.933Z,8.70
2022-08-03T08:38:05.624Z,7.53
2022-08-03T08:39:38.901Z,7.50
2022-08-03T08:41:15.839Z,7.53
2022-08-03T08:42:57.834Z,7.60
2022-08-03T08:44:30.797Z,7.35
2022-08-03T08:46:03.811Z,8.10
2022-08-03T08:47:51.778Z,8.80
2022-08-03T08:49:29.446Z,7.43
2022-08-03T08:51:02.452Z,7.82
2022-08-03T08:52:36.526Z,7.82
2022-08-03T08:54:11.147Z,7.53
2022-08-03T08:56:00.034Z,7.43
2022-08-03T08:57:43.530Z,7.70
2022-08-03T08:59:17.429Z,7.07
2022-08-03T09:00:50.861Z,7.90
2022-08-03T09:02:30.023Z,7.55
2022-08-03T09:04:07.319Z,6.70
2022-08-03T09:05:55.755Z,8.27
2022-08-03T09:07:29.279Z,6.15
2022-08-03T09:09:01.739Z,6.25
2022-08-03T09:10:34.820Z,6.13
2022-08-03T09:12:35.287Z,6.10
2022-08-03T09:14:00.987Z,6.68
2022-08-03T09:15:33.759Z,6.75
2022-08-03T09:17:06.417Z,7.88
2022-08-03T09:18:40.524Z,7.22
2022-08-03T09:20:12.663Z,7.13
2022-08-03T09:21:44.920Z,7.53
2022-08-03T09:23:51.397Z,7.45
2022-08-03T09:25:27.220Z,7.53
2022-08-03T09:26:59.579Z,6.72
2022-08-03T09:29:01.385Z,7.18
2022-08-03T09:30:34.087Z,7.57
2022-08-03T09:32:07.428Z,7.60
2022-08-03T09:33:49.224Z,6.82
2022-08-03T09:38:08.498Z,7.80
2022-08-03T09:39:28.671Z,7.03
2022-08-03T09:41:19.412Z,6.82
2022-08-03T09:42:57.875Z,7.25
2022-08-03T09:44:39.206Z,7.45
2022-08-03T09:46:11.393Z,9.13
2022-08-03T09:47:45.146Z,8.20
2022-08-03T09:49:18.184Z,7.72
2022-08-03T09:51:14.258Z,7.05
2022-08-03T09:52:52.727Z,6.70
2022-08-03T09:54:32.673Z,6.50
2022-08-03T09:56:35.041Z,6.93
2022-08-03T09:58:10.416Z,6.45
2022-08-03T09:59:43.183Z,6.65
2022-08-03T10:01:25.500Z,5.80
2022-08-03T10:03:05.822Z,6.32
2022-08-03T10:04:48.492Z,6.63
2022-08-03T10:06:22.395Z,6.53
2022-08-03T10:08:01.037Z,6.93
2022-08-03T10:09:33.826Z,6.68
2022-08-03T10:11:05.976Z,6.75
2022-08-03T10:12:41.837Z,6.47
2022-08-03T10:14:19.051Z,6.85
2022-08-03T10:16:22.546Z,7.00
2022-08-03T10:17:44.113Z,6.70
2022-08-03T10:19:17.402Z,6.63
2022-08-03T10:20:55.433Z,6.18
2022-08-03T10:22:33.066Z,6.07
2022-08-03T10:24:09.159Z,5.75
2022-08-03T10:25:44.786Z,5.65
2022-08-03T10:27:19.943Z,5.45
2022-08-03T10:28:54.896Z,5.30
2022-08-03T10:30:28.675Z,4.45
2022-08-03T10:32:14.598Z,5.30
2022-08-03T10:33:53.182Z,6.28
2022-08-03T10:35:26.965Z,6.07
2022-08-03T10:37:01.605Z,5.75
2022-08-03T10:38:46.647Z,5.75
2022-08-03T10:40:47.564Z,5.50
2022-08-03T10:42:16.374Z,5.55
2022-08-03T10:43:58.888Z,6.07
2022-08-03T10:45:36.459Z,5.65
2022-08-03T10:47:11.032Z,5.97
2022-08-03T10:48:44.368Z,5.43
2022-08-03T10:50:18.691Z,5.88
2022-08-03T10:51:54.369Z,6.68
2022-08-03T10:53:54.282Z,6.13
2022-08-03T10:56:02.725Z,7.00
2022-08-03T10:57:56.125Z,5.57
2022-08-03T10:59:46.544Z,6.07
2022-08-03T11:01:59.188Z,6.15
2022-08-03T11:03:33.744Z,7.00
2022-08-03T11:05:26.976Z,6.40
2022-08-03T11:07:17.953Z,6.25
2022-08-03T11:09:11.029Z,6.75
2022-08-03T11:10:43.341Z,6.70
2022-08-03T11:12:31.781Z,6.93
2022-08-03T11:14:10.243Z,6.72
2022-08-03T11:15:46.727Z,6.70
2022-08-03T11:17:20.497Z,7.38
2022-08-03T11:19:12.166Z,7.60
2022-08-03T11:20:48.373Z,7.38
2022-08-03T11:22:22.555Z,7.75
2022-08-03T11:24:03.105Z,6.93
2022-08-03T11:26:13.658Z,7.70
2022-08-03T11:27:46.236Z,7.47
2022-08-03T11:29:31.706Z,7.70
2022-08-03T11:31:49.130Z,7.45
2022-08-03T11:33:32.076Z,8.05
2022-08-03T11:35:15.708Z,7.38
2022-08-03T11:37:20.555Z,7.03
2022-08-03T11:39:16.505Z,6.93
2022-08-03T11:40:52.566Z,7.93
2022-08-03T11:42:24.950Z,7.63
2022-08-03T11:43:57.428Z,7.18
2022-08-03T11:45:31.236Z,7.95
2022-08-03T11:47:03.579Z,7.25
2022-08-03T11:48:39.184Z,8.00
2022-08-03T11:50:11.575Z,7.60
2022-08-03T11:51:44.743Z,7.88
2022-08-03T11:53:19.496Z,8.30
2022-08-03T11:54:56.888Z,7.60
2022-08-03T11:56:48.025Z,7.10
2022-08-03T11:59:01.119Z,7.60
2022-08-03T12:00:30.671Z,7.70
2022-08-03T12:02:16.846Z,8.05
2022-08-03T12:03:50.018Z,8.40
2022-08-03T12:05:35.673Z,8.20
2022-08-03T12:07:08.204Z,8.35
2022-08-03T12:08:42.633Z,7.88
2022-08-03T12:10:15.834Z,7.68
2022-08-03T12:11:59.754Z,7.40
2022-08-03T12:14:45.214Z,7.78
2022-08-03T12:15:35.915Z,8.32
2022-08-03T12:17:08.220Z,8.23
2022-08-03T12:18:40.764Z,8.18
2022-08-03T12:20:35.245Z,8.20
2022-08-03T12:22:07.661Z,7.40
2022-08-03T12:23:39.934Z,7.03
2022-08-03T12:25:39.178Z,7.47
2022-08-03T12:27:12.137Z,7.55
2022-08-03T12:28:50.772Z,8.07
2022-08-03T12:30:23.963Z,7.18
2022-08-03T12:31:56.583Z,7.80
2022-08-03T12:33:29.182Z,7.60
2022-08-03T12:35:02.267Z,7.22
2022-08-03T12:36:36.472Z,7.50
2022-08-03T12:38:09.119Z,7.57
2022-08-03T12:40:03.081Z,7.40
2022-08-03T12:41:40.825Z,7.25
2022-08-03T12:43:14.564Z,7.82
2022-08-03T12:44:48.906Z,7.70
2022-08-03T12:46:47.887Z,7.40
2022-08-03T12:48:20.562Z,7.93
2022-08-03T12:49:56.788Z,7.68
2022-08-03T12:51:32.243Z,8.43
2022-08-03T12:53:09.150Z,8.98
2022-08-03T12:54:42.571Z,8.63
2022-08-03T12:56:14.752Z,9.10
2022-08-03T12:57:46.910Z,9.02
2022-08-03T12:59:35.402Z,8.70
2022-08-03T13:01:13.786Z,8.88
2022-08-03T13:02:46.727Z,9.10
2022-08-03T13:04:34.855Z,9.93
2022-08-03T13:06:24.114Z,9.10
2022-08-03T13:07:57.121Z,10.85
2022-08-03T13:09:32.338Z,9.10
2022-08-03T13:11:53.636Z,8.90
2022-08-03T13:13:20.693Z,9.13
2022-08-03T13:14:59.019Z,8.40
2022-08-03T13:16:32.065Z,9.75
2022-08-03T13:18:04.312Z,8.63
2022-08-03T13:19:38.835Z,10.48
2022-08-03T13:21:10.994Z,8.60
2022-08-03T13:22:48.281Z,8.07
2022-08-03T13:24:20.547Z,8.85
2022-08-03T13:25:55.281Z,8.70
2022-08-03T13:28:13.831Z,11.77
2022-08-03T13:29:21.659Z,9.68
2022-08-03T13:30:54.828Z,8.43
2022-08-03T13:32:27.144Z,7.90
2022-08-03T13:33:59.291Z,9.57
2022-08-03T13:35:31.422Z,8.55
2022-08-03T13:37:09.243Z,7.65
2022-08-03T13:38:41.780Z,7.80
2022-08-03T13:40:14.915Z,8.15
2022-08-03T13:41:47.351Z,7.88
2022-08-03T13:43:21.483Z,7.35
2022-08-03T13:44:53.703Z,7.90
2022-08-03T13:46:27.006Z,7.35
2022-08-03T13:47:59.160Z,7.18
2022-08-03T13:49:31.770Z,7.22
2022-08-03T13:51:11.764Z,6.97
2022-08-03T13:52:54.486Z,7.68
2022-08-03T13:54:26.859Z,7.78
2022-08-03T13:55:59.268Z,6.97
2022-08-03T13:58:05.234Z,6.75
2022-08-03T13:59:25.691Z,6.78
2022-08-03T14:00:57.980Z,7.35
2022-08-03T14:02:30.456Z,7.10
2022-08-03T14:04:02.802Z,7.55
2022-08-03T14:05:35.875Z,7.18
2022-08-03T14:07:08.259Z,8.25
2022-08-03T14:08:40.667Z,6.85
2022-08-03T14:10:12.932Z,6.93
2022-08-03T14:12:08.236Z,6.53
2022-08-03T14:13:38.207Z,6.78
2022-08-03T14:15:13.035Z,7.43
2022-08-03T14:16:45.200Z,7.10
2022-08-03T14:18:29.013Z,7.00
2022-08-03T14:20:36.271Z,7.15
2022-08-03T14:22:06.190Z,6.95
2022-08-03T14:23:39.673Z,7.20
2022-08-03T14:25:11.989Z,7.25
2022-08-03T14:26:45.963Z,7.32
2022-08-03T14:28:23.719Z,6.90
2022-08-03T14:29:59.717Z,6.82
2022-08-03T14:32:11.995Z,7.18
2022-08-03T14:33:25.500Z,6.57
2022-08-03T14:34:57.704Z,6.80
2022-08-03T14:36:30.284Z,7.15
2022-08-03T14:38:02.402Z,6.88
2022-08-03T14:41:28.016Z,6.95
2022-08-03T14:43:00.188Z,6.05
2022-08-03T14:44:32.332Z,6.60
2022-08-03T14:46:04.839Z,6.78
2022-08-03T14:49:02.599Z,6.50
2022-08-03T14:50:31.294Z,7.00
2022-08-03T14:51:22.660Z,6.75
2022-08-03T14:52:55.268Z,6.60
2022-08-03T14:54:30.976Z,6.97
2022-08-03T14:56:07.963Z,7.40
2022-08-03T14:57:42.421Z,7.47
2022-08-03T14:59:14.544Z,6.55
2022-08-03T15:00:46.796Z,6.72
2022-08-03T15:02:23.793Z,6.80
2022-08-03T15:03:56.578Z,8.82
2022-08-03T15:05:28.884Z,6.13
2022-08-03T15:07:01.081Z,5.97
2022-08-03T15:08:33.204Z,6.03
2022-08-03T15:10:06.084Z,5.80
2022-08-03T15:11:38.654Z,5.78
2022-08-03T15:13:10.844Z,6.55
2022-08-03T15:14:43.091Z,6.30
2022-08-03T15:16:15.426Z,5.60
2022-08-03T15:18:00.041Z,6.75
2022-08-03T15:20:03.141Z,6.03
2022-08-03T15:21:47.290Z,6.93
2022-08-03T15:23:18.631Z,6.32
2022-08-03T15:24:50.896Z,5.80
2022-08-03T15:26:30.424Z,6.07
2022-08-03T15:28:06.521Z,5.85
2022-08-03T15:30:08.707Z,6.20
2022-08-03T15:31:30.895Z,6.10
2022-08-03T15:33:03.754Z,6.50
2022-08-03T15:34:36.296Z,5.88
2022-08-03T15:36:08.517Z,6.05
2022-08-03T15:37:41.100Z,6.30
2022-08-03T15:39:13.329Z,6.07
2022-08-03T15:40:45.910Z,6.53
2022-08-03T15:42:18.119Z,6.30
2022-08-03T15:43:52.839Z,6.45
2022-08-03T15:45:25.092Z,6.38
2022-08-03T15:47:00.256Z,6.53
2022-08-03T15:48:32.488Z,6.80
2022-08-03T15:50:09.526Z,6.60
2022-08-03T15:51:41.968Z,6.20
2022-08-03T15:53:14.308Z,6.75
2022-08-03T15:54:46.548Z,6.60
2022-08-03T15:56:18.988Z,6.95
2022-08-03T15:59:04.723Z,6.68
2022-08-03T15:59:43.633Z,6.75
2022-08-03T16:01:19.647Z,6.70
2022-08-03T16:02:55.740Z,7.07
2022-08-03T16:04:29.187Z,6.32
2022-08-03T16:06:04.476Z,6.70
2022-08-03T16:08:02.494Z,6.70
2022-08-03T16:09:42.043Z,6.82
2022-08-03T16:11:16.633Z,7.53
2022-08-03T16:12:49.693Z,6.43
2022-08-03T16:14:32.444Z,6.70
2022-08-03T16:16:05.673Z,7.15
2022-08-03T16:17:40.123Z,6.53
2022-08-03T16:19:12.267Z,6.95
2022-08-03T16:20:45.234Z,6.47
2022-08-03T16:22:19.670Z,7.43
2022-08-03T16:23:55.344Z,6.70
2022-08-03T16:25:28.391Z,6.78
2022-08-03T16:27:00.967Z,7.10
2022-08-03T16:28:38.001Z,7.10
2022-08-03T16:30:13.285Z,7.18
2022-08-03T16:31:51.054Z,7.18
2022-08-03T16:33:23.799Z,7.20
2022-08-03T16:34:55.923Z,7.28
2022-08-03T16:36:28.374Z,7.40
2022-08-03T16:38:10.099Z,7.65
2022-08-03T16:39:43.749Z,7.15
2022-08-03T16:41:15.919Z,6.93
2022-08-03T16:42:48.272Z,7.68
2022-08-03T16:44:20.735Z,7.60
2022-08-03T16:45:52.900Z,7.28
2022-08-03T16:47:25.087Z,7.28
2022-08-03T16:48:57.820Z,7.85
2022-08-03T16:50:29.963Z,7.22
2022-08-03T16:52:02.116Z,7.47
2022-08-03T16:54:05.268Z,7.55
2022-08-03T16:55:48.749Z,7.60
2022-08-03T16:57:58.327Z,7.40
2022-08-03T16:59:11.914Z,7.50
2022-08-03T17:00:44.518Z,7.47
2022-08-03T17:02:29.258Z,7.75
2022-08-03T17:04:04.572Z,7.40
2022-08-03T17:05:47.169Z,7.03
2022-08-03T17:07:21.934Z,6.90
2022-08-03T17:08:55.275Z,7.30
2022-08-03T17:10:28.052Z,6.60
2022-08-03T17:12:00.429Z,6.90
2022-08-03T17:13:39.922Z,7.70
2022-08-03T17:15:12.509Z,7.03
2022-08-03T17:16:52.781Z,7.35
2022-08-03T17:18:29.727Z,7.30
2022-08-03T17:20:10.807Z,7.22
2022-08-03T17:21:56.519Z,7.20
2022-08-03T17:23:50.145Z,7.30
2022-08-03T17:25:39.774Z,7.13
2022-08-03T17:28:49.289Z,10.15
2022-08-03T17:29:26.727Z,8.80
2022-08-03T17:31:31.787Z,8.00
2022-08-03T17:33:05.486Z,8.00
2022-08-03T17:34:52.555Z,8.27
2022-08-03T17:36:37.030Z,7.85
2022-08-03T17:38:22.384Z,9.27
2022-08-03T17:39:59.140Z,10.18
2022-08-03T17:41:37.952Z,9.20
2022-08-03T17:44:13.314Z,9.65
2022-08-03T17:45:15.475Z,11.02
2022-08-03T17:46:48.335Z,10.90
2022-08-03T17:48:21.068Z,12.68
2022-08-03T17:49:57.616Z,11.13
2022-08-03T17:51:46.535Z,9.68
2022-08-03T17:53:33.493Z,9.52
2022-08-03T17:55:55.542Z,9.30
2022-08-03T17:57:27.166Z,8.45
2022-08-03T17:59:51.295Z,8.52
2022-08-03T18:02:01.798Z,8.65
2022-08-03T18:03:58.484Z,9.52
2022-08-03T18:06:10.987Z,8.93
2022-08-03T18:07:41.107Z,9.35
2022-08-03T18:10:05.317Z,9.35
2022-08-03T18:11:14.728Z,8.75
2022-08-03T18:12:58.045Z,8.65
2022-08-03T18:15:00.932Z,8.23
2022-08-03T18:16:49.587Z,9.27
2022-08-03T18:18:32.957Z,9.13
2022-08-03T18:20:11.606Z,11.82
2022-08-03T18:22:03.031Z,10.30
2022-08-03T18:23:38.688Z,10.05
2022-08-03T18:25:11.226Z,9.77
2022-08-03T18:26:48.678Z,10.88
2022-08-03T18:28:23.381Z,9.52
2022-08-03T18:29:58.444Z,10.35
2022-08-03T18:32:00.527Z,9.48
2022-08-03T18:34:16.593Z,9.13
2022-08-03T18:35:20.615Z,9.82
2022-08-03T18:37:00.379Z,10.45
2022-08-03T18:38:40.764Z,10.30
2022-08-03T18:40:13.331Z,8.80
2022-08-03T18:41:52.984Z,8.68
2022-08-03T18:43:47.323Z,9.65
2022-08-03T18:45:57.748Z,10.25
2022-08-03T18:48:12.204Z,9.70
2022-08-03T18:50:09.793Z,9.75
2022-08-03T18:51:47.591Z,10.00
2022-08-03T18:54:06.187Z,10.85
2022-08-03T18:56:01.722Z,9.90
2022-08-03T18:57:48.946Z,10.75
2022-08-03T18:59:39.616Z,9.35
2022-08-03T19:02:00.793Z,9.07
2022-08-03T19:03:42.887Z,8.10
2022-08-03T19:05:21.470Z,8.60
2022-08-03T19:07:04.699Z,8.75
2022-08-03T19:08:54.311Z,8.13
2022-08-03T19:10:32.448Z,8.65
2022-08-03T19:12:26.528Z,7.97
2022-08-03T19:14:05.216Z,8.05
2022-08-03T19:15:51.698Z,7.90
2022-08-03T19:17:29.513Z,7.85
2022-08-03T19:19:02.650Z,8.57
2022-08-03T19:20:35.043Z,8.07
2022-08-03T19:22:11.047Z,7.97
2022-08-03T19:23:48.372Z,7.82
2022-08-03T19:25:35.301Z,8.60
2022-08-03T19:27:10.811Z,8.25
2022-08-03T19:28:43.304Z,7.95
2022-08-03T19:30:53.567Z,8.13
2022-08-03T19:32:28.928Z,8.50
2022-08-03T19:34:02.648Z,8.02
2022-08-03T19:35:54.904Z,8.60
2022-08-03T19:37:38.043Z,8.38
2022-08-03T19:39:14.176Z,8.82
2022-08-03T19:40:51.496Z,8.25
2022-08-03T19:42:41.376Z,8.25
2022-08-03T19:44:29.551Z,8.13
2022-08-03T19:46:12.265Z,8.27
2022-08-03T19:47:52.563Z,8.20
2022-08-03T19:49:59.957Z,8.73
2022-08-03T19:52:00.998Z,8.63
2022-08-03T19:53:35.268Z,8.55
2022-08-03T19:55:12.222Z,8.40
2022-08-03T19:56:49.813Z,8.10
2022-08-03T19:58:33.154Z,7.82
2022-08-03T20:00:12.061Z,8.20
2022-08-03T20:01:50.681Z,8.40
2022-08-03T20:03:27.827Z,8.02
2022-08-03T20:05:15.959Z,8.48
2022-08-03T20:06:49.926Z,8.30
2022-08-03T20:08:22.601Z,8.10
2022-08-03T20:09:56.687Z,7.90
2022-08-03T20:11:29.393Z,7.38
2022-08-03T20:13:01.891Z,7.85
2022-08-03T20:14:38.884Z,7.07
2022-08-03T20:16:13.806Z,8.48
2022-08-03T20:17:54.383Z,8.77
2022-08-03T20:19:32.638Z,7.05
2022-08-03T20:21:15.241Z,8.02
2022-08-03T20:22:52.771Z,8.45
2022-08-03T20:24:34.415Z,8.15
2022-08-03T20:26:13.861Z,8.20
2022-08-03T20:28:07.231Z,8.48
2022-08-03T20:30:06.618Z,7.57
2022-08-03T20:31:40.121Z,8.20
2022-08-03T20:33:12.404Z,8.00
2022-08-03T20:34:51.369Z,8.20
2022-08-03T20:36:26.376Z,7.75
2022-08-03T20:37:59.406Z,7.43
2022-08-03T20:39:32.192Z,7.50
2022-08-03T20:41:04.955Z,7.47
2022-08-03T20:42:37.567Z,7.65
2022-08-03T20:44:10.783Z,7.55
2022-08-03T20:46:00.113Z,7.65
2022-08-03T20:47:36.796Z,7.63
2022-08-03T20:49:24.046Z,7.55
2022-08-03T20:50:56.826Z,7.50
2022-08-03T20:52:33.225Z,7.00
2022-08-03T20:54:23.136Z,7.45
2022-08-03T20:56:01.905Z,7.00
2022-08-03T20:57:35.779Z,7.00
2022-08-03T20:59:14.893Z,7.38
2022-08-03T21:00:48.460Z,7.40
2022-08-03T21:02:29.717Z,7.55
2022-08-03T21:04:11.295Z,7.22
2022-08-03T21:05:53.673Z,7.15
2022-08-03T21:08:03.975Z,7.00
2022-08-03T21:09:39.893Z,6.57
2022-08-03T21:11:19.480Z,6.88
2022-08-03T21:13:29.435Z,6.63
2022-08-03T21:15:07.988Z,6.95
2022-08-03T21:16:44.113Z,6.70
2022-08-03T21:18:18.005Z,6.25
2022-08-03T21:19:52.983Z,6.22
2022-08-03T21:21:31.245Z,6.40
2022-08-03T21:23:06.392Z,7.30
2022-08-03T21:24:43.407Z,6.43
2022-08-03T21:26:19.061Z,6.20
2022-08-03T21:27:52.064Z,5.97
2022-08-03T21:29:24.549Z,6.32
2022-08-03T21:30:58.854Z,5.75
2022-08-03T21:32:33.274Z,6.25
2022-08-03T21:34:06.440Z,6.53
2022-08-03T21:35:38.606Z,6.15
2022-08-03T21:37:15.120Z,6.78
2022-08-03T21:38:56.521Z,6.28
2022-08-03T21:40:29.539Z,6.60
2022-08-03T21:42:02.035Z,6.25
2022-08-03T21:43:36.971Z,7.18
2022-08-03T21:45:17.163Z,6.43
2022-08-03T21:46:54.844Z,6.20
2022-08-03T21:48:30.791Z,6.15